Time;durP1;ratioP1;P1;durP2;ratioP2;P2;SDS_P1;SDS_P2;PMS_P1;PMS_P2;Temp;Humidity;BMP_temperature;BMP_pressure;BME280_temperature;BME280_humidity;BME280_pressure;Samples;Min_cycle;Max_cycle;Signal;HPM_P1;HPM_P2
2022/02/15 00:02:53;;;;;;;35.13;20.30;;;;;;;;;;6317846;28;20063;-76
2022/02/15 00:05:59;;;;;;;32.95;19.50;;;;;;;;;;6318635;28;20368;-76
2022/02/15 00:09:02;;;;;;;35.25;20.50;;;;;;;;;;6319951;28;20044;-76
2022/02/15 00:12:06;;;;;;;33.75;19.58;;;;;;;;;;6319835;28;20410;-77
2022/02/15 00:15:13;;;;;;;35.50;20.13;;;;;;;;;;6319928;28;20048;-77
2022/02/15 00:18:16;;;;;;;36.50;21.13;;;;;;;;;;6318633;28;20052;-75
2022/02/15 00:21:21;;;;;;;33.88;19.88;;;;;;;;;;6318781;28;20391;-75
2022/02/15 00:24:25;;;;;;;33.92;18.65;;;;;;;;;;6318501;28;20051;-76
2022/02/15 00:27:28;;;;;;;32.50;19.83;;;;;;;;;;6319488;28;20398;-77
2022/02/15 00:30:35;;;;;;;33.40;19.35;;;;;;;;;;6318136;28;20051;-77
2022/02/15 00:33:38;;;;;;;33.53;19.77;;;;;;;;;;6318018;28;20052;-77
2022/02/15 00:36:43;;;;;;;34.13;19.52;;;;;;;;;;6319046;28;20048;-78
2022/02/15 00:39:46;;;;;;;31.40;19.20;;;;;;;;;;6319522;28;20046;-78
2022/02/15 00:42:49;;;;;;;32.30;18.95;;;;;;;;;;6317789;28;20077;-78
2022/02/15 00:45:55;;;;;;;34.65;20.13;;;;;;;;;;6318966;28;20055;-76
2022/02/15 00:49:00;;;;;;;29.08;18.40;;;;;;;;;;6317388;28;20563;-76
2022/02/15 00:52:08;;;;;;;31.85;19.25;;;;;;;;;;6318904;28;20048;-76
2022/02/15 00:55:13;;;;;;;29.88;19.00;;;;;;;;;;6319075;28;20093;-76
2022/02/15 00:58:16;;;;;;;31.65;18.85;;;;;;;;;;6317107;28;20052;-77
2022/02/15 01:01:22;;;;;;;36.13;20.20;;;;;;;;;;6318724;28;20048;-77
2022/02/15 01:04:25;;;;;;;29.13;18.52;;;;;;;;;;6317011;28;20059;-75
2022/02/15 01:07:29;;;;;;;32.67;19.15;;;;;;;;;;6316946;28;20047;-76
2022/02/15 01:10:32;;;;;;;31.33;19.13;;;;;;;;;;6318285;28;20147;-76
2022/02/15 01:13:35;;;;;;;34.67;19.60;;;;;;;;;;6316506;28;20040;-75
2022/02/15 01:16:40;;;;;;;31.48;18.67;;;;;;;;;;6317088;28;20036;-75
2022/02/15 01:19:44;;;;;;;32.85;18.50;;;;;;;;;;6316804;28;20067;-76
2022/02/15 01:22:51;;;;;;;30.55;18.13;;;;;;;;;;6316853;28;20592;-76
2022/02/15 01:25:54;;;;;;;31.40;18.93;;;;;;;;;;6316891;28;20048;-75
2022/02/15 01:29:00;;;;;;;29.83;18.05;;;;;;;;;;6316818;28;20300;-76
2022/02/15 01:32:05;;;;;;;31.08;17.55;;;;;;;;;;6316465;28;20455;-75
2022/02/15 01:35:08;;;;;;;34.42;18.27;;;;;;;;;;6316395;28;20052;-75
2022/02/15 01:38:13;;;;;;;30.63;19.02;;;;;;;;;;6316572;28;20048;-76
2022/02/15 01:41:16;;;;;;;31.10;18.40;;;;;;;;;;6316418;28;20055;-76
2022/02/15 01:44:20;;;;;;;29.08;17.80;;;;;;;;;;6316249;28;20521;-76
2022/02/15 01:47:25;;;;;;;30.23;18.70;;;;;;;;;;6316642;28;20052;-77
2022/02/15 01:50:31;;;;;;;30.85;18.25;;;;;;;;;;6316122;28;20044;-76
2022/02/15 01:53:36;;;;;;;30.25;19.38;;;;;;;;;;6316524;28;20071;-76
2022/02/15 01:56:40;;;;;;;30.67;18.42;;;;;;;;;;6316209;28;20058;-75
2022/02/15 01:59:44;;;;;;;36.30;19.48;;;;;;;;;;6315995;28;20040;-76
2022/02/15 02:02:51;;;;;;;31.23;19.10;;;;;;;;;;6315926;28;20044;-75
2022/02/15 02:05:56;;;;;;;34.33;18.75;;;;;;;;;;6315760;28;20122;-75
2022/02/15 02:09:02;;;;;;;28.85;17.52;;;;;;;;;;6315863;28;20101;-75
2022/02/15 02:12:06;;;;;;;29.63;17.38;;;;;;;;;;6315795;28;20051;-75
2022/02/15 02:15:27;;;;;;;35.13;18.55;;;;;;;;;;6315717;28;20101;-76
2022/02/15 02:18:54;;;;;;;32.47;18.75;;;;;;;;;;6315610;28;20051;-75
2022/02/15 02:22:10;;;;;;;32.25;18.70;;;;;;;;;;6315684;28;20516;-75
2022/02/15 02:25:16;;;;;;;27.73;17.15;;;;;;;;;;6314824;28;20123;-75
2022/02/15 02:28:20;;;;;;;;;;;;;;;;;;6316393;28;20084;-75
2022/02/15 02:31:26;;;;;;;32.70;16.90;;;;;;;;;;6315389;28;19920;-75
2022/02/15 02:34:37;;;;;;;35.90;18.88;;;;;;;;;;6315597;28;20409;-75
2022/02/15 02:37:41;;;;;;;32.75;18.33;;;;;;;;;;6315315;28;20535;-75
2022/02/15 02:40:44;;;;;;;29.13;19.00;;;;;;;;;;6315129;28;20050;-75
2022/02/15 02:43:47;;;;;;;31.13;17.60;;;;;;;;;;6298496;28;20177;-75
2022/02/15 02:46:52;;;;;;;29.35;17.50;;;;;;;;;;6315217;28;20487;-75
2022/02/15 02:50:00;;;;;;;31.05;19.15;;;;;;;;;;6314763;28;20060;-75
2022/02/15 02:53:12;;;;;;;31.33;17.60;;;;;;;;;;6315256;28;20052;-75
2022/02/15 02:56:19;;;;;;;29.80;18.10;;;;;;;;;;6315519;28;20402;-76
2022/02/15 02:59:22;;;;;;;33.47;19.25;;;;;;;;;;6316225;28;20406;-76
2022/02/15 03:02:26;;;;;;;30.85;18.33;;;;;;;;;;6314956;28;20093;-76
2022/02/15 03:05:29;;;;;;;33.75;19.05;;;;;;;;;;6315416;28;20052;-76
2022/02/15 03:08:34;;;;;;;32.38;17.92;;;;;;;;;;6314726;28;20040;-76
2022/02/15 03:11:38;;;;;;;31.48;18.92;;;;;;;;;;6314771;28;20059;-76
2022/02/15 03:14:43;;;;;;;31.17;17.42;;;;;;;;;;6316296;28;20394;-76
2022/02/15 03:17:49;;;;;;;31.73;17.98;;;;;;;;;;6314861;28;20052;-77
2022/02/15 03:21:02;;;;;;;27.95;18.27;;;;;;;;;;6314997;28;20110;-77
2022/02/15 03:24:07;;;;;;;31.00;18.35;;;;;;;;;;6314642;28;20055;-77
2022/02/15 03:27:15;;;;;;;32.08;18.63;;;;;;;;;;6314888;28;20447;-77
2022/02/15 03:30:18;;;;;;;29.00;17.13;;;;;;;;;;6314355;28;20466;-77
2022/02/15 03:33:21;;;;;;;28.73;18.30;;;;;;;;;;6314578;28;20048;-77
2022/02/15 03:36:28;;;;;;;34.25;19.48;;;;;;;;;;6317461;28;20352;-78
2022/02/15 03:39:39;;;;;;;32.55;19.48;;;;;;;;;;6319264;28;20048;-78
2022/02/15 03:46:05;;;;;;;34.08;19.48;;;;;;;;;;6318711;28;20040;-77
2022/02/15 03:49:12;;;;;;;31.63;19.08;;;;;;;;;;6318634;28;20387;-78
2022/02/15 03:52:19;;;;;;;33.50;19.75;;;;;;;;;;6318860;28;20158;-77
2022/02/15 03:55:27;;;;;;;34.17;19.95;;;;;;;;;;6318613;28;20090;-76
2022/02/15 03:58:31;;;;;;;27.60;17.73;;;;;;;;;;6318464;28;20038;-77
2022/02/15 04:01:39;;;;;;;28.95;18.60;;;;;;;;;;6318862;28;20118;-77
2022/02/15 04:04:44;;;;;;;30.77;19.25;;;;;;;;;;6318506;28;20062;-77
2022/02/15 04:07:50;;;;;;;34.15;18.38;;;;;;;;;;6318337;28;20485;-77
2022/02/15 04:10:55;;;;;;;31.85;18.80;;;;;;;;;;6319007;28;20097;-77
2022/02/15 04:14:02;;;;;;;30.52;19.52;;;;;;;;;;6318444;28;20059;-77
2022/02/15 04:17:07;;;;;;;32.22;19.08;;;;;;;;;;6318190;28;20044;-77
2022/02/15 04:20:12;;;;;;;31.52;18.85;;;;;;;;;;6317947;28;20083;-77
2022/02/15 04:23:16;;;;;;;35.35;20.45;;;;;;;;;;6301259;28;20055;-78
2022/02/15 04:26:22;;;;;;;32.90;19.65;;;;;;;;;;6318213;28;20048;-77
2022/02/15 04:29:28;;;;;;;37.08;19.52;;;;;;;;;;6317639;28;20040;-77
2022/02/15 04:32:34;;;;;;;33.55;19.45;;;;;;;;;;6317789;28;20043;-77
2022/02/15 04:35:38;;;;;;;32.88;19.02;;;;;;;;;;6317970;28;20054;-76
2022/02/15 04:38:42;;;;;;;32.13;20.10;;;;;;;;;;6317520;28;20056;-75
2022/02/15 04:41:47;;;;;;;33.17;19.52;;;;;;;;;;6317617;28;20094;-77
2022/02/15 04:44:57;;;;;;;32.35;18.30;;;;;;;;;;6318095;28;20475;-77
2022/02/15 04:48:21;;;;;;;31.70;19.00;;;;;;;;;;6317645;28;20474;-76
2022/02/15 04:51:24;;;;;;;32.83;18.98;;;;;;;;;;6317117;28;20434;-76
2022/02/15 04:54:29;;;;;;;31.60;18.38;;;;;;;;;;6317195;28;20043;-76
2022/02/15 04:57:35;;;;;;;33.75;19.80;;;;;;;;;;6317347;28;20539;-76
2022/02/15 05:00:41;;;;;;;29.42;18.70;;;;;;;;;;6316966;28;20040;-76
2022/02/15 05:03:51;;;;;;;31.50;19.48;;;;;;;;;;6316741;28;20044;-76
2022/02/15 05:06:55;;;;;;;29.58;17.92;;;;;;;;;;6317230;28;20126;-77
2022/02/15 05:10:03;;;;;;;;;;;;;;;;;;6317196;28;20044;-77
2022/02/15 05:13:12;;;;;;;30.90;18.70;;;;;;;;;;6316701;28;19924;-76
2022/02/15 05:16:23;;;;;;;33.47;18.48;;;;;;;;;;6316696;28;20067;-76
2022/02/15 05:19:46;;;;;;;31.85;19.00;;;;;;;;;;6310569;28;20056;-75
2022/02/15 05:22:51;;;;;;;31.55;17.75;;;;;;;;;;6316790;28;20055;-75
2022/02/15 05:25:55;;;;;;;32.15;19.25;;;;;;;;;;6316158;28;20048;-76
2022/02/15 05:29:18;;;;;;;31.95;18.17;;;;;;;;;;6316518;28;20055;-76
2022/02/15 05:32:25;;;;;;;31.40;19.58;;;;;;;;;;6316661;28;20411;-76
2022/02/15 05:35:31;;;;;;;30.33;18.30;;;;;;;;;;6316269;28;20048;-76
2022/02/15 05:38:34;;;;;;;32.03;19.02;;;;;;;;;;6315886;28;20259;-76
2022/02/15 05:41:43;;;;;;;30.83;18.42;;;;;;;;;;6316457;28;20505;-76
2022/02/15 05:44:48;;;;;;;33.92;19.17;;;;;;;;;;6316152;28;20040;-76
2022/02/15 05:47:57;;;;;;;32.20;18.73;;;;;;;;;;6315847;28;20059;-76
2022/02/15 05:51:00;;;;;;;31.88;18.13;;;;;;;;;;6316013;28;20055;-76
2022/02/15 05:54:33;;;;;;;33.47;18.35;;;;;;;;;;6308352;28;20529;-76
2022/02/15 05:57:45;;;;;;;30.00;17.23;;;;;;;;;;6315556;28;20048;-76
2022/02/15 06:00:51;;;;;;;40.67;19.15;;;;;;;;;;6315354;28;20047;-77
2022/02/15 06:04:13;;;;;;;32.07;17.30;;;;;;;;;;6316993;28;20060;-76
2022/02/15 06:07:24;;;;;;;28.67;18.20;;;;;;;;;;6316313;28;20307;-76
2022/02/15 06:10:28;;;;;;;34.35;17.95;;;;;;;;;;6315275;28;20479;-77
2022/02/15 06:13:38;;;;;;;29.13;17.55;;;;;;;;;;6315222;28;20048;-76
2022/02/15 06:16:48;;;;;;;35.30;19.10;;;;;;;;;;6315695;28;20467;-75
2022/02/15 06:19:55;;;;;;;33.25;18.52;;;;;;;;;;6315479;28;20533;-75
2022/02/15 06:23:08;;;;;;;33.05;19.67;;;;;;;;;;6315195;28;20117;-77
2022/02/15 06:26:13;;;;;;;39.55;22.42;;;;;;;;;;6299028;28;20569;-77
2022/02/15 06:29:54;;;;;;;41.20;23.42;;;;;;;;;;6263592;28;20079;-76
2022/02/15 06:33:05;;;;;;;42.03;23.90;;;;;;;;;;6246969;28;20580;-75
2022/02/15 06:36:09;;;;;;;43.80;25.77;;;;;;;;;;6315138;28;20446;-76
2022/02/15 06:39:15;;;;;;;37.97;22.95;;;;;;;;;;6314973;28;20055;-75
2022/02/15 06:42:24;;;;;;;39.75;23.60;;;;;;;;;;6316078;28;20058;-74
2022/02/15 06:45:29;;;;;;;33.42;20.65;;;;;;;;;;6315090;28;20044;-77
2022/02/15 06:48:37;;;;;;;40.67;22.38;;;;;;;;;;6314699;28;20076;-77
2022/02/15 06:51:40;;;;;;;33.83;20.13;;;;;;;;;;6315689;28;20450;-77
2022/02/15 06:54:46;;;;;;;33.15;20.50;;;;;;;;;;6315258;28;20066;-76
2022/02/15 06:57:56;;;;;;;28.33;17.45;;;;;;;;;;6314798;28;20394;-76
2022/02/15 07:00:59;;;;;;;31.35;18.25;;;;;;;;;;6314746;28;20508;-77
2022/02/15 07:04:07;;;;;;;31.38;17.85;;;;;;;;;;6315706;28;20140;-76
2022/02/15 07:07:10;;;;;;;34.20;20.02;;;;;;;;;;6315355;28;20044;-77
2022/02/15 07:10:14;;;;;;;33.83;19.00;;;;;;;;;;6315884;28;20387;-78
2022/02/15 07:13:37;;;;;;;87.38;50.83;;;;;;;;;;6317058;28;20067;-79
2022/02/15 07:17:00;;;;;;;40.83;24.52;;;;;;;;;;6320142;28;20460;-77
2022/02/15 07:20:06;;;;;;;31.08;19.67;;;;;;;;;;6317970;28;20059;-78
2022/02/15 07:23:28;;;;;;;34.90;19.52;;;;;;;;;;6319503;28;20044;-78
2022/02/15 07:26:50;;;;;;;35.78;19.00;;;;;;;;;;6319621;28;20055;-78
2022/02/15 07:30:02;;;;;;;37.10;21.40;;;;;;;;;;6319008;28;20048;-78
2022/02/15 07:33:43;;;;;;;32.38;19.67;;;;;;;;;;6310221;28;20052;-78
2022/02/15 07:36:49;;;;;;;32.28;18.17;;;;;;;;;;6314956;28;20436;-77
2022/02/15 07:39:52;;;;;;;35.60;20.08;;;;;;;;;;6316025;28;20498;-78
2022/02/15 07:42:57;;;;;;;36.17;21.08;;;;;;;;;;6315283;28;20052;-78
2022/02/15 07:46:16;;;;;;;34.70;21.08;;;;;;;;;;6316371;28;20059;-79
2022/02/15 07:49:20;;;;;;;34.80;21.48;;;;;;;;;;6316941;28;20166;-78
2022/02/15 07:52:24;;;;;;;38.63;22.02;;;;;;;;;;6318780;28;20070;-78
2022/02/15 07:55:28;;;;;;;39.22;21.83;;;;;;;;;;6319247;28;20044;-77
2022/02/15 07:58:31;;;;;;;35.30;22.23;;;;;;;;;;6318534;28;20047;-77
2022/02/15 08:01:35;;;;;;;37.10;21.65;;;;;;;;;;6321085;28;20454;-78
2022/02/15 08:04:41;;;;;;;33.17;21.65;;;;;;;;;;6319021;28;20048;-80
2022/02/15 08:07:48;;;;;;;38.55;22.55;;;;;;;;;;6318430;28;20478;-77
2022/02/15 08:10:51;;;;;;;35.60;22.45;;;;;;;;;;6320126;28;20048;-78
2022/02/15 08:14:00;;;;;;;34.47;21.85;;;;;;;;;;6319155;28;20044;-79
2022/02/15 08:17:04;;;;;;;36.35;21.38;;;;;;;;;;6318743;28;20048;-79
2022/02/15 08:20:08;;;;;;;33.55;20.83;;;;;;;;;;6319798;28;20048;-79
2022/02/15 08:23:13;;;;;;;38.83;21.35;;;;;;;;;;6318835;28;20047;-78
2022/02/15 08:26:19;;;;;;;38.25;21.85;;;;;;;;;;6319192;28;20048;-79
2022/02/15 08:29:24;;;;;;;;;;;;;;;;;;6319210;28;20114;-78
2022/02/15 08:32:28;;;;;;;33.35;20.42;;;;;;;;;;6319211;28;20294;-78
2022/02/15 08:35:51;;;;;;;31.90;20.60;;;;;;;;;;6318710;28;20055;-75
2022/02/15 08:38:55;;;;;;;36.95;21.60;;;;;;;;;;6319807;28;20089;-78
2022/02/15 08:42:04;;;;;;;30.73;20.30;;;;;;;;;;6317897;28;20047;-77
2022/02/15 08:45:08;;;;;;;31.42;20.65;;;;;;;;;;6317561;28;20044;-77
2022/02/15 08:48:13;;;;;;;30.80;20.05;;;;;;;;;;6319384;28;20139;-77
2022/02/15 08:51:19;;;;;;;38.10;21.17;;;;;;;;;;6317305;28;20055;-77
2022/02/15 08:54:23;;;;;;;37.78;21.30;;;;;;;;;;6317151;28;20089;-76
2022/02/15 08:57:27;;;;;;;35.70;21.05;;;;;;;;;;6317947;28;20414;-77
2022/02/15 09:00:30;;;;;;;34.03;20.83;;;;;;;;;;6317281;28;20069;-77
2022/02/15 09:03:34;;;;;;;34.13;21.33;;;;;;;;;;6318551;28;20113;-77
2022/02/15 09:06:40;;;;;;;35.33;21.77;;;;;;;;;;6318891;28;20040;-79
2022/02/15 09:09:45;;;;;;;36.67;21.23;;;;;;;;;;6319040;28;20051;-78
2022/02/15 09:12:49;;;;;;;37.20;22.08;;;;;;;;;;6317219;28;20039;-80
2022/02/15 09:15:53;;;;;;;33.50;21.15;;;;;;;;;;6316557;28;20048;-82
2022/02/15 09:18:58;;;;;;;36.08;20.90;;;;;;;;;;6318838;28;20099;-81
2022/02/15 09:22:04;;;;;;;35.10;22.20;;;;;;;;;;6317514;28;20036;-79
2022/02/15 09:25:11;;;;;;;33.03;20.70;;;;;;;;;;6318069;28;20722;-79
2022/02/15 09:28:15;;;;;;;35.22;21.75;;;;;;;;;;6319005;28;20052;-80
2022/02/15 09:31:19;;;;;;;34.20;21.30;;;;;;;;;;6318506;28;20048;-78
2022/02/15 09:34:23;;;;;;;31.65;20.70;;;;;;;;;;6316272;28;20040;-77
2022/02/15 09:37:28;;;;;;;31.73;19.73;;;;;;;;;;6316256;28;20176;-78
2022/02/15 09:40:33;;;;;;;32.88;20.05;;;;;;;;;;6317056;28;20047;-78
2022/02/15 09:43:37;;;;;;;38.47;20.58;;;;;;;;;;6317586;28;20437;-78
2022/02/15 09:46:44;;;;;;;31.20;20.77;;;;;;;;;;6316565;28;20043;-77
2022/02/15 09:49:51;;;;;;;33.03;20.85;;;;;;;;;;6316644;28;20048;-78
2022/02/15 09:52:54;;;;;;;31.45;18.90;;;;;;;;;;6316459;28;20044;-75
2022/02/15 09:55:58;;;;;;;32.83;18.38;;;;;;;;;;6316213;28;20043;-77
2022/02/15 09:59:02;;;;;;;32.17;18.75;;;;;;;;;;6317332;28;20047;-78
2022/02/15 10:02:06;;;;;;;31.33;18.60;;;;;;;;;;6316781;28;20410;-77
2022/02/15 10:05:14;;;;;;;29.17;18.95;;;;;;;;;;6317213;28;20403;-76
2022/02/15 10:08:29;;;;;;;28.80;18.98;;;;;;;;;;6315690;28;20048;-77
2022/02/15 10:11:38;;;;;;;30.25;17.20;;;;;;;;;;6316361;28;20482;-77
2022/02/15 10:14:43;;;;;;;29.67;19.08;;;;;;;;;;6316264;28;20124;-77
2022/02/15 10:17:48;;;;;;;26.55;17.33;;;;;;;;;;6316943;28;20039;-78
2022/02/15 10:20:54;;;;;;;27.63;18.27;;;;;;;;;;6315266;28;20078;-78
2022/02/15 10:23:58;;;;;;;29.23;17.45;;;;;;;;;;6316532;28;20040;-78
2022/02/15 10:27:04;;;;;;;25.48;15.43;;;;;;;;;;6316808;28;20052;-77
2022/02/15 10:30:09;;;;;;;;;;;;;;;;;;6315789;28;20402;-77
2022/02/15 10:33:12;;;;;;;38.63;17.67;;;;;;;;;;6316196;28;20026;-78
2022/02/15 10:36:15;;;;;;;28.27;16.52;;;;;;;;;;6316437;28;20106;-79
2022/02/15 10:39:18;;;;;;;27.52;15.63;;;;;;;;;;6316535;28;20048;-78
2022/02/15 10:42:26;;;;;;;27.38;17.13;;;;;;;;;;6315480;28;20051;-77
2022/02/15 10:45:32;;;;;;;25.17;16.45;;;;;;;;;;6316817;28;20041;-78
2022/02/15 10:48:36;;;;;;;36.38;22.60;;;;;;;;;;6318409;28;20064;-78
2022/02/15 10:51:39;;;;;;;31.45;19.13;;;;;;;;;;6317986;28;20047;-78
2022/02/15 10:54:42;;;;;;;27.45;18.73;;;;;;;;;;6318817;28;20112;-77
2022/02/15 10:57:51;;;;;;;29.77;17.50;;;;;;;;;;6317912;28;20501;-78
2022/02/15 11:00:57;;;;;;;31.30;18.17;;;;;;;;;;6317949;28;20047;-77
2022/02/15 11:04:02;;;;;;;31.83;17.90;;;;;;;;;;6317481;28;20150;-79
2022/02/15 11:07:06;;;;;;;34.05;18.00;;;;;;;;;;6317463;28;20052;-77
2022/02/15 11:10:14;;;;;;;27.33;17.58;;;;;;;;;;6316468;28;20044;-78
2022/02/15 11:13:19;;;;;;;33.63;18.63;;;;;;;;;;6300033;28;20105;-77
2022/02/15 11:16:25;;;;;;;29.67;18.58;;;;;;;;;;6318776;28;20398;-79
2022/02/15 11:19:33;;;;;;;27.55;17.65;;;;;;;;;;6317873;28;20056;-79
2022/02/15 11:22:43;;;;;;;27.55;17.05;;;;;;;;;;6320323;28;20548;-78
2022/02/15 11:25:48;;;;;;;28.60;16.45;;;;;;;;;;6320685;28;20497;-77
2022/02/15 11:28:55;;;;;;;25.70;17.00;;;;;;;;;;6321099;28;20512;-78
2022/02/15 11:31:58;;;;;;;29.42;17.75;;;;;;;;;;6320237;28;20076;-78
2022/02/15 11:35:09;;;;;;;27.00;16.02;;;;;;;;;;6320059;28;20080;-77
2022/02/15 11:38:13;;;;;;;24.17;14.82;;;;;;;;;;6321005;28;20048;-80
2022/02/15 11:41:16;;;;;;;31.75;17.95;;;;;;;;;;6320576;28;20048;-77
2022/02/15 11:44:29;;;;;;;29.88;16.52;;;;;;;;;;6318572;28;20047;-78
2022/02/15 11:47:44;;;;;;;25.27;14.88;;;;;;;;;;6318561;28;20068;-77
2022/02/15 11:50:52;;;;;;;24.35;14.98;;;;;;;;;;6319654;28;20044;-77
2022/02/15 11:53:57;;;;;;;22.17;14.32;;;;;;;;;;6318728;28;20075;-77
2022/02/15 11:57:01;;;;;;;22.27;12.70;;;;;;;;;;6318127;28;20048;-77
2022/02/15 12:00:08;;;;;;;20.20;11.75;;;;;;;;;;6320240;28;20048;-77
2022/02/15 12:03:15;;;;;;;16.85;11.18;;;;;;;;;;6320251;28;20040;-77
2022/02/15 12:06:18;;;;;;;20.35;11.00;;;;;;;;;;6319625;28;20048;-77
2022/02/15 12:09:26;;;;;;;19.20;10.82;;;;;;;;;;6318199;28;20445;-78
2022/02/15 12:12:30;;;;;;;16.77;10.32;;;;;;;;;;6319434;28;20040;-78
2022/02/15 12:15:38;;;;;;;16.45;9.98;;;;;;;;;;6319416;28;20510;-79
2022/02/15 12:18:41;;;;;;;41.10;22.38;;;;;;;;;;6316136;28;20040;-76
2022/02/15 12:21:44;;;;;;;17.67;9.40;;;;;;;;;;6313523;28;20036;-77
2022/02/15 12:24:50;;;;;;;21.67;10.43;;;;;;;;;;6308321;28;20544;-77
2022/02/15 12:27:57;;;;;;;20.70;11.88;;;;;;;;;;6307600;28;20164;-77
2022/02/15 12:31:02;;;;;;;23.90;12.35;;;;;;;;;;6306043;28;20178;-77
2022/02/15 12:34:06;;;;;;;21.33;12.03;;;;;;;;;;6306672;28;20097;-78
2022/02/15 12:37:17;;;;;;;21.50;12.00;;;;;;;;;;6306469;28;20486;-77
2022/02/15 12:40:21;;;;;;;28.67;15.07;;;;;;;;;;6305813;28;20384;-76
2022/02/15 12:43:30;;;;;;;18.27;10.70;;;;;;;;;;6308177;28;20051;-78
2022/02/15 12:46:36;;;;;;;19.02;11.27;;;;;;;;;;6307851;28;20063;-78
2022/02/15 12:49:43;;;;;;;19.15;11.15;;;;;;;;;;6306518;28;20539;-78
2022/02/15 12:52:46;;;;;;;20.20;11.27;;;;;;;;;;6310692;28;20137;-78
2022/02/15 12:55:49;;;;;;;20.67;11.13;;;;;;;;;;6309996;28;20506;-78
2022/02/15 12:58:56;;;;;;;20.95;10.77;;;;;;;;;;6306566;28;20055;-78
2022/02/15 13:02:01;;;;;;;21.25;11.32;;;;;;;;;;6304570;28;20044;-78
2022/02/15 13:05:05;;;;;;;19.95;11.55;;;;;;;;;;6306359;28;20066;-77
2022/02/15 13:08:16;;;;;;;19.77;10.98;;;;;;;;;;6306249;28;20112;-77
2022/02/15 13:11:26;;;;;;;18.58;11.13;;;;;;;;;;6305693;28;20051;-77
2022/02/15 13:14:29;;;;;;;18.20;10.25;;;;;;;;;;6307278;28;20071;-79
2022/02/15 13:17:41;;;;;;;17.33;9.80;;;;;;;;;;6306462;28;20048;-77
2022/02/15 13:20:51;;;;;;;17.27;10.65;;;;;;;;;;6307488;28;20063;-76
2022/02/15 13:23:56;;;;;;;18.67;10.98;;;;;;;;;;6307827;28;20047;-77
2022/02/15 13:26:59;;;;;;;18.48;10.30;;;;;;;;;;6309237;28;20490;-76
2022/02/15 13:30:16;;;;;;;24.10;12.75;;;;;;;;;;6305562;28;20051;-77
2022/02/15 13:33:25;;;;;;;15.90;9.93;;;;;;;;;;6305127;28;20040;-76
2022/02/15 13:36:32;;;;;;;16.20;10.38;;;;;;;;;;6305731;28;20060;-76
2022/02/15 13:39:36;;;;;;;17.58;10.20;;;;;;;;;;6305193;28;20518;-77
2022/02/15 13:42:40;;;;;;;18.15;9.77;;;;;;;;;;6304976;28;20052;-77
2022/02/15 13:45:45;;;;;;;17.52;9.70;;;;;;;;;;6304184;28;20489;-78
2022/02/15 13:48:50;;;;;;;18.65;9.18;;;;;;;;;;6304969;28;20055;-77
2022/02/15 13:51:53;;;;;;;13.93;8.73;;;;;;;;;;6305710;28;20036;-77
2022/02/15 13:54:56;;;;;;;16.75;9.00;;;;;;;;;;6305425;28;20260;-77
2022/02/15 13:58:00;;;;;;;14.75;8.35;;;;;;;;;;6307928;28;20487;-78
2022/02/15 14:01:05;;;;;;;36.25;21.08;;;;;;;;;;6307633;28;20403;-78
2022/02/15 14:04:10;;;;;;;19.17;9.90;;;;;;;;;;6305594;28;20052;-78
2022/02/15 14:07:13;;;;;;;13.68;8.10;;;;;;;;;;6303670;28;20040;-78
2022/02/15 14:10:19;;;;;;;18.67;7.78;;;;;;;;;;6304967;28;20047;-79
2022/02/15 14:13:25;;;;;;;22.70;8.38;;;;;;;;;;6304633;28;20044;-78
2022/02/15 14:16:28;;;;;;;13.77;7.45;;;;;;;;;;6303066;28;20469;-78
2022/02/15 14:19:33;;;;;;;20.38;11.20;;;;;;;;;;6304514;28;20040;-77
2022/02/15 14:22:37;;;;;;;20.88;9.00;;;;;;;;;;6304824;28;20421;-79
2022/02/15 14:25:40;;;;;;;14.70;9.07;;;;;;;;;;6305030;28;20129;-71
2022/02/15 14:28:45;;;;;;;17.45;9.57;;;;;;;;;;6307420;28;20044;-71
2022/02/15 14:31:51;;;;;;;18.02;10.20;;;;;;;;;;6308443;28;20048;-72
2022/02/15 14:34:57;;;;;;;20.70;9.88;;;;;;;;;;6306252;28;20407;-71
2022/02/15 14:38:04;;;;;;;18.13;9.48;;;;;;;;;;6303147;28;20265;-72
2022/02/15 14:41:08;;;;;;;21.25;9.40;;;;;;;;;;6304633;28;20036;-71
2022/02/15 14:44:14;;;;;;;17.48;8.85;;;;;;;;;;6303872;28;20509;-72
2022/02/15 14:47:23;;;;;;;19.65;9.38;;;;;;;;;;6305180;28;20070;-71
2022/02/15 14:50:30;;;;;;;16.88;9.30;;;;;;;;;;6304554;28;20499;-71
2022/02/15 14:53:33;;;;;;;14.27;9.05;;;;;;;;;;6306619;28;20048;-71
2022/02/15 14:56:39;;;;;;;17.17;9.73;;;;;;;;;;6304360;28;20048;-70
2022/02/15 14:59:41;;;;;;;22.70;10.02;;;;;;;;;;6305554;28;20127;-69
2022/02/15 15:02:47;;;;;;;21.02;10.77;;;;;;;;;;6307565;28;20050;-71
2022/02/15 15:05:55;;;;;;;22.02;11.82;;;;;;;;;;6306142;28;20090;-71
2022/02/15 15:09:00;;;;;;;25.58;14.50;;;;;;;;;;6304175;28;20044;-73
2022/02/15 15:12:07;;;;;;;21.60;13.02;;;;;;;;;;6302816;28;20548;-73
2022/02/15 15:15:13;;;;;;;24.13;15.07;;;;;;;;;;6303983;28;20051;-73
2022/02/15 15:18:16;;;;;;;26.77;15.25;;;;;;;;;;6303559;28;20049;-73
2022/02/15 15:21:22;;;;;;;24.75;15.32;;;;;;;;;;6303218;28;20039;-73
2022/02/15 15:24:25;;;;;;;26.70;15.20;;;;;;;;;;6303368;28;20048;-72
2022/02/15 15:27:29;;;;;;;23.63;15.75;;;;;;;;;;6303340;28;20406;-72
2022/02/15 15:30:32;;;;;;;25.52;16.88;;;;;;;;;;6305151;28;20401;-72
2022/02/15 15:33:35;;;;;;;36.05;21.38;;;;;;;;;;6311480;28;20040;-72
2022/02/15 15:36:42;;;;;;;30.50;17.23;;;;;;;;;;6311874;28;20491;-73
2022/02/15 15:39:48;;;;;;;24.50;17.25;;;;;;;;;;6310526;28;20863;-73
2022/02/15 15:42:56;;;;;;;29.73;19.10;;;;;;;;;;6307533;28;20059;-73
2022/02/15 15:45:59;;;;;;;31.13;19.90;;;;;;;;;;6309641;28;20073;-73
2022/02/15 15:49:03;;;;;;;36.10;21.95;;;;;;;;;;6307341;28;20175;-73
2022/02/15 15:52:08;;;;;;;34.97;20.10;;;;;;;;;;6306786;28;20058;-73
2022/02/15 15:55:15;;;;;;;34.13;21.52;;;;;;;;;;6307945;28;20033;-73
2022/02/15 15:58:21;;;;;;;38.50;22.05;;;;;;;;;;6309926;28;20067;-73
2022/02/15 16:01:24;;;;;;;35.72;22.92;;;;;;;;;;6307597;28;20456;-73
2022/02/15 16:04:29;;;;;;;34.45;21.75;;;;;;;;;;6311272;28;20448;-73
2022/02/15 16:07:34;;;;;;;41.55;24.10;;;;;;;;;;6312440;28;20867;-73
2022/02/15 16:10:37;;;;;;;31.35;22.83;;;;;;;;;;6307446;28;20048;-72
2022/02/15 16:13:40;;;;;;;33.58;22.67;;;;;;;;;;6305571;28;20406;-73
2022/02/15 16:16:44;;;;;;;36.17;22.67;;;;;;;;;;6307517;28;20048;-73
2022/02/15 16:19:47;;;;;;;32.42;21.70;;;;;;;;;;6308584;28;20100;-73
2022/02/15 16:22:52;;;;;;;35.22;22.73;;;;;;;;;;6307711;28;20047;-72
2022/02/15 16:25:59;;;;;;;34.13;22.42;;;;;;;;;;6311949;28;20091;-72
2022/02/15 16:29:02;;;;;;;35.28;22.38;;;;;;;;;;6317884;28;20048;-73
2022/02/15 16:32:11;;;;;;;35.10;22.85;;;;;;;;;;6318013;28;20048;-73
2022/02/15 16:35:17;;;;;;;37.22;22.90;;;;;;;;;;6316867;28;20105;-73
2022/02/15 16:38:24;;;;;;;37.85;23.67;;;;;;;;;;6317964;28;20158;-73
2022/02/15 16:41:27;;;;;;;43.72;24.33;;;;;;;;;;6318627;28;20047;-74
2022/02/15 16:44:33;;;;;;;38.60;23.45;;;;;;;;;;6317396;28;20549;-74
2022/02/15 16:47:36;;;;;;;36.72;23.63;;;;;;;;;;6317292;28;20048;-73
2022/02/15 16:50:40;;;;;;;40.28;23.10;;;;;;;;;;6322795;28;20513;-76
2022/02/15 16:53:47;;;;;;;48.22;25.20;;;;;;;;;;6341260;28;20082;-76
2022/02/15 16:56:50;;;;;;;34.33;23.00;;;;;;;;;;6340861;28;20044;-77
2022/02/15 16:59:55;;;;;;;37.33;24.77;;;;;;;;;;6326635;28;20103;-76
2022/02/15 17:02:59;;;;;;;40.70;25.05;;;;;;;;;;6343806;28;20094;-73
2022/02/15 17:06:03;;;;;;;42.83;24.67;;;;;;;;;;6343032;28;20063;-74
2022/02/15 17:09:09;;;;;;;40.97;25.08;;;;;;;;;;6342472;28;20046;-76
2022/02/15 17:12:16;;;;;;;40.53;25.73;;;;;;;;;;6323271;28;20047;-77
2022/02/15 17:15:20;;;;;;;40.95;26.05;;;;;;;;;;6339028;28;20056;-76
2022/02/15 17:18:25;;;;;;;41.15;24.48;;;;;;;;;;6338874;28;20581;-75
2022/02/15 17:21:28;;;;;;;39.72;24.67;;;;;;;;;;6340977;28;20537;-75
2022/02/15 17:24:36;;;;;;;41.20;26.45;;;;;;;;;;6340398;28;20421;-74
2022/02/15 17:27:42;;;;;;;37.05;23.65;;;;;;;;;;6338592;28;20524;-76
2022/02/15 17:30:45;;;;;;;42.20;23.95;;;;;;;;;;6341598;28;20043;-77
2022/02/15 17:33:48;;;;;;;41.63;25.25;;;;;;;;;;6343388;28;20512;-75
2022/02/15 17:36:54;;;;;;;;;;;;;;;;;;6343230;28;20039;-75
2022/02/15 17:39:59;;;;;;;50.88;27.98;;;;;;;;;;6342511;28;19920;-75
2022/02/15 17:43:02;;;;;;;38.28;23.35;;;;;;;;;;6343448;28;20065;-73
2022/02/15 17:46:07;;;;;;;38.88;23.73;;;;;;;;;;6341529;28;20046;-75
2022/02/15 17:49:13;;;;;;;40.17;23.58;;;;;;;;;;6341774;27;20140;-74
2022/02/15 17:52:17;;;;;;;38.40;23.50;;;;;;;;;;6343440;28;20087;-75
2022/02/15 17:55:22;;;;;;;43.20;24.70;;;;;;;;;;6342628;28;20039;-74
2022/02/15 17:58:27;;;;;;;36.50;25.27;;;;;;;;;;6340694;28;20512;-74
2022/02/15 18:01:31;;;;;;;37.38;23.95;;;;;;;;;;6342141;28;20039;-73
2022/02/15 18:04:36;;;;;;;35.63;23.38;;;;;;;;;;6343087;28;20054;-71
2022/02/15 18:07:39;;;;;;;39.75;23.65;;;;;;;;;;6342025;28;20047;-72
2022/02/15 18:10:45;;;;;;;;;;;;;;;;;;6342004;28;20181;-71
2022/02/15 18:13:50;;;;;;;42.60;24.70;;;;;;;;;;6341275;28;20370;-73